Airfield :
LOGIN :

Register | Disclaimer

   EN    FR    IT 

 










Legend :    VFR   Marginal VFR   IFR   Intensive IFR   Very Intensive IFR
Visi :
Ceiling :
>= 8 km
>= 3000ft
5 to 8 km
1000 to 3000 ft
1500m to 5 km
500 to 1000 ft
800 to 1500m
200 to 500 ft
< 800m
< 200 ft
Symbols :   Thunderstorms  Fog  Heavy snow  Heavy precipitations  Wind > 20 kt
SIGMETs :     Misc.  Thunderstorms  Icing  Turbulence  Mountain Waves  Volcanic Ashes






- Airport Elevation : 52 ft
- IATA code : RNN


EKRN - Bornholm Ronne

CURRENT METAR :
  • 271450Z AUTO 12006KT 090V160 9999 -RA FEW100/// BKN140/// 18/15 Q1017

EXPIRED METARs :
  • 271420Z AUTO VRB01KT 9999 SCT140/// 19/15 Q1017
  • 271350Z AUTO VRB01KT 9999 SCT130/// 20/15 Q1017
  • 271320Z AUTO 24002KT 9999 NCD 20/14 Q1017
  • 271250Z AUTO 15001KT 9999 BKN064/// 20/14 Q1017
  • 271223Z 13004KT 100V180 9999 BKN062CB 18/14 Q1018
  • 271150Z AUTO 14004KT 9999 BKN068/// BKN083/// 20/14 Q1017
  • 271120Z AUTO 13006KT 100V160 9999 FEW083/// SCT094/// SCT100/// 19/14 Q1017
  • 271050Z AUTO 12008KT 9999 FEW110/// FEW140/// 20/14 Q1017
  • 271020Z AUTO 13008KT 9999 -RA SCT041/// SCT130/// BKN150/// 18/14 Q1017

TAF TAF EKRN
Valid from the 27 at 15:00 until the 28 at 00:00 UTC


271415Z 2715/2724 VRB05KT 9999 FEW050 BKN100
TEMPO 2715/2718 10008KT 4000 SHRA BR SCT030CB



MET'MAP, your aeronautical weather chart ! - Copyright ORBIFLY December 2007 - Disclaimer

ORBIFLY MET'MAP TEAM :

Programming & Development : Alexandra Zaïnal
Original concept : Baudouin d'Aumeries
Technical & hardware support : Manuel Goepfert
Assistance : Marc-Olivier Méhu




SOURCES & CREDITS :

   NOAA